Data for 03/30/2008

Time Sea-Level Adjusted Pressure Absolute Pressure Temperature Relative Humidity Dew Point   
(mb) (inHg) (mb) (inHg) (C) (F) (%) (C) (F)
00:05 1017 30.03 846 24.98 -8.2 17.3 80 -11.1 12.1
00:10 1017 30.03 846 24.98 -8.3 17 80 -11.2 11.8
00:15 1017 30.03 846 24.98 -8.5 16.6 80 -11.4 11.5
00:20 1017 30.03 846 24.98 -8.5 16.7 80 -11.3 11.6
00:25 1017 30.03 846 24.98 -8.5 16.8 80 -11.3 11.6
00:30 1017 30.03 846 24.98 -8.4 16.8 80 -11.3 11.7
00:35 1017 30.03 846 24.98 -8.3 17 80 -11.2 11.8
00:40 1017 30.03 846 24.98 -8.3 17.1 79 -11.3 11.7
00:45 1016 30 846 24.98 -8.4 16.9 79 -11.4 11.4
00:50 1016 30 846 24.98 -8.6 16.6 78 -11.7 11
00:55 1016 30 846 24.98 -8.7 16.3 78 -11.9 10.6
01:00 1016 30 846 24.98 -8.8 16.2 78 -12 10.5
01:05 1016 30 846 24.98 -8.7 16.4 78 -11.8 10.8
01:10 1016 30 845 24.95 -8.6 16.6 78 -11.7 10.9
01:15 1016 30 846 24.98 -8.5 16.7 77 -11.9 10.6
01:20 1016 30 845 24.95 -8.8 16.3 77 -12.1 10.2
01:25 1016 30 845 24.95 -8.9 16 77 -12.2 10
01:30 1016 30 845 24.95 -9.1 15.7 78 -12.3 9.9
01:35 1016 30 845 24.95 -9.1 15.6 78 -12.2 10
01:40 1016 30 845 24.95 -9 15.8 78 -12.1 10.1
01:45 1016 30 845 24.95 -9.2 15.5 77 -12.4 9.6
01:50 1016 30 845 24.95 -9.2 15.4 77 -12.5 9.5
01:55 1016 30 845 24.95 -9.3 15.4 78 -12.5 9.6
02:00 1016 30 845 24.95 -9.3 15.3 77 -12.6 9.4
02:05 1016 30 845 24.95 -9.2 15.4 77 -12.5 9.4
02:10 1016 30 845 24.95 -9 15.9 77 -12.3 9.8
02:15 1016 30 845 24.95 -8.8 16.2 77 -12.2 10.1
02:20 1016 30 845 24.95 -8.8 16.2 77 -12.1 10.2
02:25 1016 30 845 24.95 -8.7 16.3 77 -12.1 10.2
02:30 1016 30 845 24.95 -8.8 16.3 78 -12 10.4
02:35 1016 30 845 24.95 -8.9 16 78 -12.1 10.3
02:40 1016 30 845 24.95 -9.1 15.6 78 -12.2 10
02:45 1016 30 845 24.95 -9.2 15.5 79 -12.3 9.9
02:50 1016 30 845 24.95 -9 15.9 78 -12.1 10.3
02:55 1016 30 845 24.95 -8.8 16.1 79 -11.8 10.8
03:00 1016 30 845 24.95 -8.8 16.3 79 -11.8 10.8
03:05 1016 30 845 24.95 -8.8 16.2 79 -11.8 10.7
03:10 1016 30 845 24.95 -8.9 16.1 79 -11.9 10.5
03:15 1016 30 845 24.95 -9 15.8 79 -12 10.4
03:20 1016 30 845 24.95 -9 15.8 79 -12 10.3
03:25 1016 30 845 24.95 -9 15.8 79 -12 10.4
03:30 1016 30 845 24.95 -9 15.9 78 -12.1 10.2
03:35 1016 30 845 24.95 -9.2 15.5 77 -12.5 9.5
03:40 1016 30 845 24.95 -9.5 14.9 77 -12.8 9
03:45 1016 30 845 24.95 -9.6 14.8 78 -12.8 9
03:50 1016 30 845 24.95 -9.4 15 78 -12.6 9.3
03:55 1016 30 845 24.95 -9.4 15.2 78 -12.6 9.4
04:00 1015 29.97 845 24.95 -9.5 14.9 78 -12.6 9.3
04:05 1015 29.97 845 24.95 -9.6 14.6 79 -12.7 9.2
04:10 1015 29.97 845 24.95 -9.7 14.5 79 -12.6 9.3
04:15 1015 29.97 845 24.95 -9.7 14.6 78 -12.8 9
04:20 1015 29.97 845 24.95 -9.9 14.2 78 -13 8.6
04:25 1015 29.97 845 24.95 -9.8 14.4 78 -13 8.6
04:30 1015 29.97 844 24.92 -9.8 14.4 78 -12.9 8.7
04:35 1015 29.97 844 24.92 -9.7 14.5 78 -12.9 8.8
04:40 1015 29.97 844 24.92 -9.7 14.6 78 -12.8 9
04:45 1015 29.97 844 24.92 -9.5 15 78 -12.6 9.4
04:50 1015 29.97 844 24.92 -9.2 15.4 78 -12.4 9.7
04:55 1015 29.97 844 24.92 -9 15.8 77 -12.3 9.8
05:00 1015 29.97 844 24.92 -9.1 15.7 77 -12.4 9.7
05:05 1015 29.97 844 24.92 -9.1 15.6 77 -12.4 9.7
05:10 1015 29.97 844 24.92 -9.1 15.6 77 -12.4 9.7
05:15 1015 29.97 844 24.92 -9.2 15.4 78 -12.3 9.8
05:20 1015 29.97 844 24.92 -9.1 15.6 78 -12.2 10
05:25 1015 29.97 844 24.92 -9 15.9 79 -12 10.4
05:30 1015 29.97 844 24.92 -9 15.8 79 -12 10.3
05:35 1015 29.97 844 24.92 -9.1 15.5 79 -12.2 10
05:40 1015 29.97 844 24.92 -9.4 15.1 78 -12.6 9.3
05:45 1015 29.97 844 24.92 -9.5 14.8 77 -12.8 9
05:50 1015 29.97 844 24.92 -9.5 14.9 77 -12.9 8.8
05:55 1015 29.97 844 24.92 -9.7 14.6 77 -13.1 8.5
06:00 1015 29.97 844 24.92 -9.8 14.3 77 -13.1 8.3
06:05 1015 29.97 844 24.92 -9.8 14.3 77 -13 8.5
06:10 1015 29.97 844 24.92 -9.7 14.6 77 -13 8.7
06:15 1015 29.97 844 24.92 -9.7 14.5 77 -12.9 8.7
06:20 1015 29.97 844 24.92 -9.7 14.5 77 -13.1 8.5
06:25 1015 29.97 844 24.92 -10.1 13.9 77 -13.3 8
06:30 1015 29.97 844 24.92 -10.1 13.8 77 -13.4 7.9
06:35 1015 29.97 844 24.92 -10.1 13.8 77 -13.4 7.9
06:40 1015 29.97 844 24.92 -10.2 13.7 77 -13.4 7.8
06:45 1015 29.97 844 24.92 -10.3 13.6 77 -13.5 7.7
06:50 1015 29.97 844 24.92 -10.3 13.5 77 -13.5 7.6
06:55 1015 29.97 844 24.92 -10.3 13.5 77 -13.6 7.5
07:00 1015 29.97 844 24.92 -10.3 13.5 77 -13.6 7.4
07:05 1015 29.97 844 24.92 -10.4 13.2 76 -13.8 7.1
07:10 1015 29.97 844 24.92 -10.5 13 77 -13.9 7.1
07:15 1015 29.97 844 24.92 -10.7 12.8 77 -14 6.9
07:20 1015 29.97 844 24.92 -10.7 12.7 77 -14 6.7
07:25 1015 29.97 844 24.92 -10.7 12.8 76 -14 6.7
07:30 1015 29.97 844 24.92 -10.6 12.9 76 -14 6.7
07:35 1015 29.97 844 24.92 -10.6 12.9 76 -14 6.8
07:40 1015 29.97 844 24.92 -10.5 13 76 -14 6.8
07:45 1015 29.97 844 24.92 -10.5 13.1 76 -14 6.8
07:50 1015 29.97 844 24.92 -10.4 13.3 75 -14 6.9
07:55 1015 29.97 844 24.92 -10.4 13.3 75 -14 6.8
08:00 1015 29.97 844 24.92 -10.3 13.5 75 -13.9 6.9
08:05 1015 29.97 844 24.92 -10.2 13.7 75 -13.8 7.1
08:10 1015 29.97 844 24.92 -9.9 14.2 75 -13.6 7.6
08:15 1015 29.97 844 24.92 -9.6 14.7 74 -13.5 7.7
08:20 1015 29.97 844 24.92 -9.6 14.7 73 -13.6 7.5
08:25 1015 29.97 844 24.92 -9.7 14.5 73 -13.7 7.4
08:30 1015 29.97 844 24.92 -9.6 14.8 73 -13.6 7.5
08:35 1014 29.94 844 24.92 -9.2 15.5 72 -13.4 7.8
08:40 1014 29.94 844 24.92 -9.1 15.6 71 -13.4 7.9
08:45 1014 29.94 844 24.92 -8.8 16.1 71 -13.3 8.1
08:50 1014 29.94 844 24.92 -8.5 16.7 70 -13.1 8.5
08:55 1014 29.94 843 24.89 -8 17.5 69 -12.8 9
09:00 1014 29.94 843 24.89 -7.5 18.5 67 -12.5 9.5
09:05 1014 29.94 843 24.89 -7.1 19.3 66 -12.4 9.6
09:10 1014 29.94 843 24.89 -6.8 19.8 65 -12.3 9.8
09:15 1014 29.94 843 24.89 -6.5 20.3 64 -12.2 10
09:20 1014 29.94 843 24.89 -6.1 21 63 -12.1 10.3
09:25 1014 29.94 843 24.89 -5.8 21.6 62 -12 10.4
09:30 1014 29.94 843 24.89 -5.5 22.1 59 -12.2 10
09:35 1014 29.94 843 24.89 -5.5 22.2 58 -12.4 9.6
09:40 1014 29.94 843 24.89 -5.4 22.2 57 -12.7 9.1
09:45 1014 29.94 843 24.89 -5.4 22.3 57 -12.6 9.4
09:50 1014 29.94 843 24.89 -5.1 22.8 57 -12.4 9.6
09:55 1014 29.94 843 24.89 -4.9 23.2 56 -12.3 9.9
10:00 1014 29.94 843 24.89 -4.6 23.7 56 -12.1 10.2
10:05 1014 29.94 843 24.89 -4.3 24.3 55 -12 10.4
10:10 1014 29.94 843 24.89 -3.8 25.3 54 -11.8 10.8
10:15 1014 29.94 843 24.89 -3.4 25.8 52 -11.9 10.7
10:20 1014 29.94 843 24.89 -3.6 25.6 52 -12 10.4
10:25 1013 29.91 843 24.89 -3.3 26 52 -11.9 10.7
10:30 1013 29.91 843 24.89 -3.1 26.3 50 -12.2 10
10:35 1013 29.91 843 24.89 -2.8 26.9 50 -11.9 10.6
10:40 1013 29.91 843 24.89 -2.7 27.1 52 -11.4 11.5
10:45 1013 29.91 843 24.89 -2.8 27 52 -11.2 11.8
10:50 1013 29.91 842 24.86 -3.3 26.1 53 -11.6 11.2
10:55 1013 29.91 842 24.86 -3.2 26.2 55 -11 12.3
11:00 1013 29.91 842 24.86 -2.2 28.1 51 -11 12.1
11:05 1013 29.91 842 24.86 -2.2 28 53 -10.5 13.2
11:10 1013 29.91 842 24.86 -2.1 28.2 52 -10.7 12.7
11:15 1013 29.91 842 24.86 -2.7 27.2 50 -11.7 11
11:20 1013 29.91 842 24.86 -2.1 28.3 44 -12.9 8.8
11:25 1013 29.91 842 24.86 -1.7 29 44 -12.3 9.8
11:30 1013 29.91 842 24.86 -1.9 28.6 51 -10.6 12.9
11:35 1013 29.91 842 24.86 -1.7 28.9 46 -11.8 10.8
11:40 1013 29.91 842 24.86 -2 28.3 45 -12.6 9.3
11:45 1013 29.91 842 24.86 -1.8 28.7 47 -11.8 10.7
11:50 1013 29.91 842 24.86 -2.1 28.2 46 -12.3 9.8
11:55 1013 29.91 842 24.86 -2.2 28 47 -12.1 10.3
12:00 1013 29.91 842 24.86 -1.7 29 45 -12 10.3
12:05 1013 29.91 842 24.86 -1.9 28.6 46 -12 10.4
12:10 1012 29.88 842 24.86 -1.9 28.7 46 -12 10.5
12:15 1012 29.88 842 24.86 -1.7 28.9 46 -12 10.4
12:20 1012 29.88 841 24.83 -2.1 28.3 47 -11.9 10.5
12:25 1012 29.88 841 24.83 -2 28.5 48 -11.6 11.1
12:30 1012 29.88 841 24.83 -1.6 29 47 -11.5 11.2
12:35 1012 29.88 841 24.83 -1.8 28.8 48 -11.3 11.6
12:40 1012 29.88 841 24.83 -1.6 29.2 46 -11.6 11.1
12:45 1012 29.88 841 24.83 -1.5 29.2 47 -11.4 11.4
12:50 1012 29.88 841 24.83 -1.4 29.5 47 -11.2 11.8
12:55 1012 29.88 841 24.83 -1.3 29.6 47 -11.4 11.5
13:00 1012 29.88 841 24.83 -1.2 29.9 47 -11.2 11.9
13:05 1012 29.88 841 24.83 -1 30.2 45 -11.4 11.5
13:10 1012 29.88 841 24.83 -0.7 30.7 45 -11.1 11.9
13:15 1012 29.88 841 24.83 -0.5 31.1 42 -11.8 10.7
13:20 1012 29.88 841 24.83 -0.7 30.7 43 -11.9 10.5
13:25 1011 29.85 841 24.83 -0.7 30.7 46 -11 12.2
13:30 1011 29.85 841 24.83 -0.3 31.4 43 -11.5 11.4
13:35 1011 29.85 841 24.83 -0.6 30.9 45 -11.2 11.8
13:40 1011 29.85 841 24.83 -0.4 31.2 44 -11.3 11.7
13:45 1011 29.85 840 24.81 -0.1 31.8 43 -11.2 11.8
13:50 1011 29.85 840 24.81 0.2 32.4 40 -11.9 10.6
13:55 1011 29.85 840 24.81 -0.1 31.9 43 -11.3 11.6
14:00 1011 29.85 840 24.81 0.2 32.3 44 -10.7 12.8
14:05 1011 29.85 840 24.81 0.5 32.9 43 -10.8 12.6
14:10 1011 29.85 840 24.81 0.5 32.9 41 -11.4 11.5
14:15 1011 29.85 840 24.81 0.3 32.5 41 -11.4 11.5
14:20 1011 29.85 840 24.81 0.3 32.5 40 -11.7 11
14:25 1011 29.85 840 24.81 0.4 32.7 39 -11.9 10.5
14:30 1011 29.85 840 24.81 0.5 32.9 38 -12.2 10.1
14:35 1011 29.85 840 24.81 0.5 33 39 -11.8 10.7
14:40 1011 29.85 840 24.81 0.7 33.2 38 -12.1 10.3
14:45 1011 29.85 840 24.81 0.8 33.4 39 -11.9 10.7
14:50 1011 29.85 840 24.81 0.9 33.6 39 -11.6 11.2
14:55 1010 29.83 840 24.81 1.2 34.1 37 -12 10.4
15:00 1010 29.83 840 24.81 1.2 34.2 35 -12.5 9.5
15:05 1010 29.83 840 24.81 1.2 34.1 37 -11.8 10.7
15:10 1010 29.83 840 24.81 1.3 34.3 37 -11.8 10.7
15:15 1010 29.83 839 24.78 1.6 34.8 35 -12.2 10
15:20 1010 29.83 839 24.78 1.3 34.3 36 -12.1 10.3
15:25 1010 29.83 839 24.78 1.5 34.8 35 -12.3 9.9
15:30 1010 29.83 839 24.78 1.8 35.2 34 -12.6 9.3
15:35 1010 29.83 839 24.78 1.8 35.2 33 -12.8 9
15:40 1010 29.83 839 24.78 1.8 35.2 34 -12.6 9.4
15:45 1010 29.83 839 24.78 1.9 35.5 33 -12.7 9.1
15:50 1010 29.83 839 24.78 1.9 35.5 33 -12.9 8.8
15:55 1010 29.83 839 24.78 2 35.5 32 -13.2 8.3
16:00 1010 29.83 839 24.78 2.1 35.8 31 -13.4 7.8
16:05 1010 29.83 839 24.78 1.9 35.5 32 -13.1 8.4
16:10 1010 29.83 839 24.78 2.1 35.8 32 -13 8.7
16:15 1010 29.83 839 24.78 1.9 35.3 32 -13.2 8.2
16:20 1010 29.83 839 24.78 1.6 34.8 32 -13.5 7.7
16:25 1010 29.83 839 24.78 1.8 35.2 32 -13.4 7.8
16:30 1010 29.83 839 24.78 2.1 35.8 31 -13.3 8.1
16:35 1010 29.83 839 24.78 2.1 35.7 31 -13.2 8.2
16:40 1010 29.83 839 24.78 2.1 35.7 31 -13.2 8.2
16:45 1010 29.83 839 24.78 2.3 36.2 31 -13.1 8.5
16:50 1010 29.83 839 24.78 2.4 36.4 30 -13.4 7.8
16:55 1010 29.83 839 24.78 2.3 36.1 31 -13.3 8.1
17:00 1010 29.83 839 24.78 2.4 36.3 31 -13.1 8.4
17:05 1010 29.83 839 24.78 2.5 36.4 29 -13.8 7.1
17:10 1010 29.83 839 24.78 2.4 36.4 29 -14 6.8
17:15 1010 29.83 839 24.78 2.5 36.5 28 -14.1 6.7
17:20 1010 29.83 839 24.78 2.5 36.5 29 -13.9 6.9
17:25 1010 29.83 839 24.78 2.6 36.6 29 -13.8 7.1
17:30 1010 29.83 839 24.78 2.2 36 30 -13.8 7.1
17:35 1010 29.83 839 24.78 1.9 35.4 31 -13.7 7.4
17:40 1010 29.83 839 24.78 1.9 35.5 31 -13.6 7.4
17:45 1010 29.83 839 24.78 1.3 34.4 33 -13.4 7.9
17:50 1010 29.83 839 24.78 1.4 34.5 33 -13.4 8
17:55 1010 29.83 839 24.78 1.5 34.7 38 -11.2 11.8
18:00 1010 29.83 839 24.78 1.1 34.1 42 -10.3 13.4
18:05 1010 29.83 839 24.78 0.6 33.1 46 -9.8 14.3
18:10 1010 29.83 839 24.78 0.4 32.7 46 -10 14.1
18:15 1010 29.83 839 24.78 0.2 32.4 46 -10.2 13.7
18:20 1010 29.83 839 24.78 0.1 32.1 45 -10.6 13
18:25 1010 29.83 839 24.78 0.1 32.1 44 -10.8 12.5
18:30 1010 29.83 839 24.78 0.3 32.6 44 -10.6 12.9
18:35 1010 29.83 839 24.78 0.4 32.7 43 -10.9 12.4
18:40 1010 29.83 839 24.78 0.2 32.4 44 -10.8 12.6
18:45 1010 29.83 839 24.78 0.3 32.5 44 -10.7 12.7
18:50 1010 29.83 839 24.78 0.2 32.4 44 -10.7 12.7
18:55 1010 29.83 839 24.78 0.2 32.3 44 -10.8 12.5
19:00 1010 29.83 839 24.78 0.3 32.5 44 -10.6 13
19:05 1010 29.83 839 24.78 0.3 32.5 45 -10.4 13.3
19:10 1010 29.83 839 24.78 -0 32 46 -10.4 13.3
19:15 1010 29.83 839 24.78 -0.1 31.8 46 -10.4 13.4
19:20 1010 29.83 839 24.78 0 32 45 -10.6 12.8
19:25 1010 29.83 840 24.81 -0.1 31.8 45 -10.6 12.9
19:30 1010 29.83 840 24.81 -0.3 31.5 46 -10.5 13
19:35 1010 29.83 840 24.81 -0.4 31.3 48 -10.2 13.6
19:40 1010 29.83 840 24.81 -0.4 31.3 47 -10.3 13.4
19:45 1011 29.85 840 24.81 -0.5 31 49 -10 14.1
19:50 1011 29.85 840 24.81 -0.6 31 48 -10.3 13.4
19:55 1011 29.85 840 24.81 -0.5 31.1 48 -10.2 13.7
20:00 1011 29.85 840 24.81 -0.5 31 48 -10.4 13.3
20:05 1011 29.85 840 24.81 -0.7 30.8 48 -10.4 13.2
20:10 1011 29.85 840 24.81 -0.7 30.8 49 -10.1 13.8
20:15 1011 29.85 840 24.81 -0.7 30.8 48 -10.3 13.4
20:20 1011 29.85 840 24.81 -0.8 30.6 49 -10.3 13.5
20:25 1011 29.85 840 24.81 -0.8 30.6 49 -10.2 13.7
20:30 1011 29.85 840 24.81 -0.8 30.6 49 -10.1 13.8
20:35 1011 29.85 840 24.81 -0.8 30.5 50 -10 14.1
20:40 1011 29.85 840 24.81 -0.9 30.4 50 -10 14
20:45 1011 29.85 840 24.81 -0.9 30.4 51 -9.9 14.2
20:50 1011 29.85 840 24.81 -0.9 30.4 51 -9.8 14.4
20:55 1011 29.85 840 24.81 -1 30.2 52 -9.6 14.7
21:00 1011 29.85 840 24.81 -1 30.1 53 -9.4 15
21:05 1011 29.85 840 24.81 -1.2 29.9 54 -9.2 15.4
21:10 1011 29.85 840 24.81 -1.3 29.8 55 -9.3 15.3
21:15 1011 29.85 840 24.81 -1.3 29.7 55 -9.2 15.4
21:20 1011 29.85 841 24.83 -1.3 29.7 56 -9 15.8
21:25 1011 29.85 841 24.83 -1.4 29.5 58 -8.6 16.5
21:30 1011 29.85 841 24.83 -1.5 29.3 59 -8.5 16.7
21:35 1011 29.85 841 24.83 -1.5 29.2 60 -8.3 17
21:40 1011 29.85 841 24.83 -1.6 29 61 -8.2 17.3
21:45 1011 29.85 841 24.83 -1.7 28.9 63 -7.8 17.9
21:50 1011 29.85 841 24.83 -1.8 28.7 64 -7.8 18
21:55 1011 29.85 841 24.83 -1.9 28.6 64 -7.7 18.1
22:00 1012 29.88 841 24.83 -2 28.4 67 -7.4 18.7
22:05 1012 29.88 841 24.83 -2.1 28.2 68 -7.2 19.1
22:10 1012 29.88 841 24.83 -2.3 27.9 70 -7 19.4
22:15 1012 29.88 841 24.83 -2.3 27.8 71 -6.9 19.5
22:20 1012 29.88 841 24.83 -2.4 27.7 72 -6.7 19.9
22:25 1012 29.88 841 24.83 -2.6 27.4 75 -6.4 20.5
22:30 1012 29.88 841 24.83 -2.8 26.9 77 -6.3 20.7
22:35 1012 29.88 841 24.83 -2.8 26.9 78 -6.2 20.9
22:40 1012 29.88 841 24.83 -2.6 27.2 79 -5.8 21.6
22:45 1012 29.88 841 24.83 -2.5 27.5 80 -5.5 22
22:50 1012 29.88 841 24.83 -2.4 27.6 82 -5.1 22.7
22:55 1012 29.88 841 24.83 -2.6 27.2 84 -4.9 23.1
23:00 1012 29.88 841 24.83 -3 26.7 86 -4.9 23.1
23:05 1012 29.88 841 24.83 -3.1 26.5 87 -4.9 23.2
23:10 1012 29.88 841 24.83 -3.3 26 90 -4.8 23.3
23:15 1012 29.88 842 24.86 -3.4 25.8 91 -4.8 23.4
23:20 1012 29.88 841 24.83 -3.4 25.9 91 -4.6 23.6
23:25 1012 29.88 841 24.83 -3.4 25.8 92 -4.6 23.8
23:30 1012 29.88 841 24.83 -3.4 25.8 92 -4.5 23.9
23:35 1012 29.88 841 24.83 -3.5 25.8 93 -4.4 24.1
23:40 1012 29.88 841 24.83 -3.4 25.9 93 -4.3 24.3
23:45 1012 29.88 842 24.86 -3.4 25.8 94 -4.3 24.2
23:50 1012 29.88 842 24.86 -3.4 25.9 94 -4.2 24.4
23:55 1012 29.88 842 24.86 -3.4 25.8 94 -4.3 24.3
24:00 1012 29.88 842 24.86 -3.6 25.5 94 -4.4 24.1